sensor_id;sensor_type;location;lat;lon;timestamp;P1;durP1;ratioP1;P2;durP2;ratioP2
68398;SDS011;56258;52.196;13.868;2022-08-14T00:01:30;6.32;;;3.20;;
68398;SDS011;56258;52.196;13.868;2022-08-14T00:03:56;6.28;;;3.53;;
68398;SDS011;56258;52.196;13.868;2022-08-14T00:06:23;6.20;;;3.30;;
68398;SDS011;56258;52.196;13.868;2022-08-14T00:08:54;6.97;;;3.08;;
68398;SDS011;56258;52.196;13.868;2022-08-14T00:11:25;6.45;;;3.05;;
68398;SDS011;56258;52.196;13.868;2022-08-14T00:13:56;6.53;;;3.58;;
68398;SDS011;56258;52.196;13.868;2022-08-14T00:16:23;7.95;;;3.40;;
68398;SDS011;56258;52.196;13.868;2022-08-14T00:19:10;6.63;;;3.33;;
68398;SDS011;56258;52.196;13.868;2022-08-14T00:21:45;6.85;;;3.47;;
68398;SDS011;56258;52.196;13.868;2022-08-14T00:24:16;5.93;;;3.00;;
68398;SDS011;56258;52.196;13.868;2022-08-14T00:26:54;6.10;;;3.30;;
68398;SDS011;56258;52.196;13.868;2022-08-14T00:29:22;6.22;;;3.30;;
68398;SDS011;56258;52.196;13.868;2022-08-14T00:31:50;6.27;;;3.20;;
68398;SDS011;56258;52.196;13.868;2022-08-14T00:34:21;6.65;;;3.50;;
68398;SDS011;56258;52.196;13.868;2022-08-14T00:37:02;6.22;;;3.33;;
68398;SDS011;56258;52.196;13.868;2022-08-14T00:39:31;6.10;;;3.42;;
68398;SDS011;56258;52.196;13.868;2022-08-14T00:41:58;7.75;;;3.50;;
68398;SDS011;56258;52.196;13.868;2022-08-14T00:44:26;6.20;;;3.43;;
68398;SDS011;56258;52.196;13.868;2022-08-14T00:46:58;6.18;;;2.90;;
68398;SDS011;56258;52.196;13.868;2022-08-14T00:49:35;6.70;;;3.25;;
68398;SDS011;56258;52.196;13.868;2022-08-14T00:52:08;6.22;;;3.03;;
68398;SDS011;56258;52.196;13.868;2022-08-14T00:54:43;6.35;;;3.42;;
68398;SDS011;56258;52.196;13.868;2022-08-14T00:57:12;6.33;;;3.20;;
68398;SDS011;56258;52.196;13.868;2022-08-14T00:59:39;6.72;;;3.45;;
68398;SDS011;56258;52.196;13.868;2022-08-14T01:02:06;7.28;;;3.40;;
68398;SDS011;56258;52.196;13.868;2022-08-14T01:04:36;6.80;;;3.67;;
68398;SDS011;56258;52.196;13.868;2022-08-14T01:07:20;7.13;;;3.92;;
68398;SDS011;56258;52.196;13.868;2022-08-14T01:10:05;7.10;;;3.80;;
68398;SDS011;56258;52.196;13.868;2022-08-14T01:12:32;6.25;;;3.40;;
68398;SDS011;56258;52.196;13.868;2022-08-14T01:15:06;6.82;;;3.78;;
68398;SDS011;56258;52.196;13.868;2022-08-14T01:17:35;7.10;;;3.83;;
68398;SDS011;56258;52.196;13.868;2022-08-14T01:20:20;6.85;;;4.10;;
68398;SDS011;56258;52.196;13.868;2022-08-14T01:23:13;6.70;;;3.67;;
68398;SDS011;56258;52.196;13.868;2022-08-14T01:25:44;6.40;;;3.63;;
68398;SDS011;56258;52.196;13.868;2022-08-14T01:28:13;6.88;;;3.70;;
68398;SDS011;56258;52.196;13.868;2022-08-14T01:31:00;6.85;;;4.00;;
68398;SDS011;56258;52.196;13.868;2022-08-14T01:33:27;6.50;;;3.88;;
68398;SDS011;56258;52.196;13.868;2022-08-14T01:35:55;7.20;;;4.27;;
68398;SDS011;56258;52.196;13.868;2022-08-14T01:38:31;6.80;;;3.70;;
68398;SDS011;56258;52.196;13.868;2022-08-14T01:41:06;6.93;;;3.92;;
68398;SDS011;56258;52.196;13.868;2022-08-14T01:46:22;6.88;;;4.15;;
68398;SDS011;56258;52.196;13.868;2022-08-14T01:48:59;6.70;;;4.07;;
68398;SDS011;56258;52.196;13.868;2022-08-14T01:51:27;6.68;;;3.88;;
68398;SDS011;56258;52.196;13.868;2022-08-14T01:53:56;7.28;;;3.83;;
68398;SDS011;56258;52.196;13.868;2022-08-14T01:56:25;6.40;;;3.45;;
68398;SDS011;56258;52.196;13.868;2022-08-14T01:59:06;6.72;;;3.97;;
68398;SDS011;56258;52.196;13.868;2022-08-14T02:01:44;7.57;;;4.10;;
68398;SDS011;56258;52.196;13.868;2022-08-14T02:04:20;7.30;;;4.00;;
68398;SDS011;56258;52.196;13.868;2022-08-14T02:07:08;7.15;;;3.70;;
68398;SDS011;56258;52.196;13.868;2022-08-14T02:09:41;7.10;;;4.07;;
68398;SDS011;56258;52.196;13.868;2022-08-14T02:12:08;6.88;;;3.97;;
68398;SDS011;56258;52.196;13.868;2022-08-14T02:14:44;6.73;;;3.93;;
68398;SDS011;56258;52.196;13.868;2022-08-14T02:17:27;7.05;;;4.20;;
68398;SDS011;56258;52.196;13.868;2022-08-14T02:19:56;7.18;;;4.18;;
68398;SDS011;56258;52.196;13.868;2022-08-14T02:22:24;7.38;;;4.47;;
68398;SDS011;56258;52.196;13.868;2022-08-14T02:24:58;7.20;;;4.25;;
68398;SDS011;56258;52.196;13.868;2022-08-14T02:27:26;6.93;;;4.27;;
68398;SDS011;56258;52.196;13.868;2022-08-14T02:30:14;7.05;;;4.18;;
68398;SDS011;56258;52.196;13.868;2022-08-14T02:32:41;6.90;;;4.03;;
68398;SDS011;56258;52.196;13.868;2022-08-14T02:35:09;7.15;;;3.95;;
68398;SDS011;56258;52.196;13.868;2022-08-14T02:37:45;7.10;;;4.22;;
68398;SDS011;56258;52.196;13.868;2022-08-14T02:40:17;7.23;;;4.30;;
68398;SDS011;56258;52.196;13.868;2022-08-14T02:42:59;7.20;;;4.10;;
68398;SDS011;56258;52.196;13.868;2022-08-14T02:45:28;7.75;;;4.25;;
68398;SDS011;56258;52.196;13.868;2022-08-14T02:48:10;6.90;;;4.43;;
68398;SDS011;56258;52.196;13.868;2022-08-14T02:50:58;8.20;;;4.60;;
68398;SDS011;56258;52.196;13.868;2022-08-14T02:53:26;7.10;;;4.13;;
68398;SDS011;56258;52.196;13.868;2022-08-14T02:55:56;7.07;;;4.10;;
68398;SDS011;56258;52.196;13.868;2022-08-14T02:58:48;7.10;;;4.15;;
68398;SDS011;56258;52.196;13.868;2022-08-14T03:01:21;7.35;;;4.18;;
68398;SDS011;56258;52.196;13.868;2022-08-14T03:03:57;7.72;;;4.40;;
68398;SDS011;56258;52.196;13.868;2022-08-14T03:06:24;8.63;;;4.47;;
68398;SDS011;56258;52.196;13.868;2022-08-14T03:09:11;8.18;;;4.45;;
68398;SDS011;56258;52.196;13.868;2022-08-14T03:11:38;7.35;;;4.50;;
68398;SDS011;56258;52.196;13.868;2022-08-14T03:14:10;9.45;;;4.47;;
68398;SDS011;56258;52.196;13.868;2022-08-14T03:16:40;7.78;;;4.47;;
68398;SDS011;56258;52.196;13.868;2022-08-14T03:19:14;7.17;;;4.17;;
68398;SDS011;56258;52.196;13.868;2022-08-14T03:21:45;7.18;;;3.85;;
68398;SDS011;56258;52.196;13.868;2022-08-14T03:24:18;7.32;;;4.30;;
68398;SDS011;56258;52.196;13.868;2022-08-14T03:26:49;7.15;;;4.05;;
68398;SDS011;56258;52.196;13.868;2022-08-14T03:29:23;7.53;;;4.43;;
68398;SDS011;56258;52.196;13.868;2022-08-14T03:31:52;6.87;;;4.27;;
68398;SDS011;56258;52.196;13.868;2022-08-14T03:34:18;7.18;;;4.35;;
68398;SDS011;56258;52.196;13.868;2022-08-14T03:37:08;7.32;;;4.07;;
68398;SDS011;56258;52.196;13.868;2022-08-14T03:39:58;8.70;;;4.43;;
68398;SDS011;56258;52.196;13.868;2022-08-14T03:42:25;12.98;;;4.45;;
68398;SDS011;56258;52.196;13.868;2022-08-14T03:45:10;7.20;;;4.23;;
68398;SDS011;56258;52.196;13.868;2022-08-14T03:47:59;9.77;;;4.43;;
68398;SDS011;56258;52.196;13.868;2022-08-14T03:50:27;7.20;;;4.05;;
68398;SDS011;56258;52.196;13.868;2022-08-14T03:52:58;6.78;;;3.83;;
68398;SDS011;56258;52.196;13.868;2022-08-14T03:55:27;8.15;;;4.78;;
68398;SDS011;56258;52.196;13.868;2022-08-14T03:57:55;7.70;;;4.20;;
68398;SDS011;56258;52.196;13.868;2022-08-14T04:00:26;7.10;;;4.45;;
68398;SDS011;56258;52.196;13.868;2022-08-14T04:03:09;7.80;;;4.57;;
68398;SDS011;56258;52.196;13.868;2022-08-14T04:05:44;7.72;;;4.30;;
68398;SDS011;56258;52.196;13.868;2022-08-14T04:08:14;7.47;;;4.38;;
68398;SDS011;56258;52.196;13.868;2022-08-14T04:10:56;7.20;;;4.10;;
68398;SDS011;56258;52.196;13.868;2022-08-14T04:13:27;7.35;;;4.25;;
68398;SDS011;56258;52.196;13.868;2022-08-14T04:16:03;7.95;;;4.50;;
68398;SDS011;56258;52.196;13.868;2022-08-14T04:18:41;7.10;;;4.40;;
68398;SDS011;56258;52.196;13.868;2022-08-14T04:21:13;7.72;;;4.68;;
68398;SDS011;56258;52.196;13.868;2022-08-14T04:23:41;7.53;;;4.27;;
68398;SDS011;56258;52.196;13.868;2022-08-14T04:26:14;6.95;;;3.92;;
68398;SDS011;56258;52.196;13.868;2022-08-14T04:29:04;7.60;;;4.60;;
68398;SDS011;56258;52.196;13.868;2022-08-14T04:31:40;7.25;;;4.55;;
68398;SDS011;56258;52.196;13.868;2022-08-14T04:34:27;7.60;;;4.60;;
68398;SDS011;56258;52.196;13.868;2022-08-14T04:36:54;7.20;;;4.40;;
68398;SDS011;56258;52.196;13.868;2022-08-14T04:39:49;7.10;;;4.18;;
68398;SDS011;56258;52.196;13.868;2022-08-14T04:42:36;6.90;;;4.05;;
68398;SDS011;56258;52.196;13.868;2022-08-14T04:45:21;7.13;;;4.20;;
68398;SDS011;56258;52.196;13.868;2022-08-14T04:47:50;7.63;;;4.40;;
68398;SDS011;56258;52.196;13.868;2022-08-14T04:50:42;8.37;;;4.57;;
68398;SDS011;56258;52.196;13.868;2022-08-14T04:53:20;7.40;;;4.65;;
68398;SDS011;56258;52.196;13.868;2022-08-14T04:56:00;7.80;;;4.90;;
68398;SDS011;56258;52.196;13.868;2022-08-14T04:58:28;7.82;;;4.72;;
68398;SDS011;56258;52.196;13.868;2022-08-14T05:00:59;8.07;;;4.55;;
68398;SDS011;56258;52.196;13.868;2022-08-14T05:03:29;7.57;;;4.10;;
68398;SDS011;56258;52.196;13.868;2022-08-14T05:05:59;8.05;;;4.85;;
68398;SDS011;56258;52.196;13.868;2022-08-14T05:08:28;7.93;;;4.78;;
68398;SDS011;56258;52.196;13.868;2022-08-14T05:11:15;7.35;;;4.40;;
68398;SDS011;56258;52.196;13.868;2022-08-14T05:13:45;7.45;;;4.55;;
68398;SDS011;56258;52.196;13.868;2022-08-14T05:16:31;7.33;;;4.27;;
68398;SDS011;56258;52.196;13.868;2022-08-14T05:18:58;8.13;;;4.30;;
68398;SDS011;56258;52.196;13.868;2022-08-14T05:21:45;8.60;;;4.55;;
68398;SDS011;56258;52.196;13.868;2022-08-14T05:24:31;8.57;;;4.47;;
68398;SDS011;56258;52.196;13.868;2022-08-14T05:26:58;9.48;;;5.07;;
68398;SDS011;56258;52.196;13.868;2022-08-14T05:29:25;9.13;;;4.80;;
68398;SDS011;56258;52.196;13.868;2022-08-14T05:31:52;8.38;;;4.53;;
68398;SDS011;56258;52.196;13.868;2022-08-14T05:34:23;7.20;;;4.47;;
68398;SDS011;56258;52.196;13.868;2022-08-14T05:36:57;8.13;;;4.63;;
68398;SDS011;56258;52.196;13.868;2022-08-14T05:39:28;8.43;;;4.72;;
68398;SDS011;56258;52.196;13.868;2022-08-14T05:41:56;8.83;;;4.63;;
68398;SDS011;56258;52.196;13.868;2022-08-14T05:44:26;8.88;;;4.43;;
68398;SDS011;56258;52.196;13.868;2022-08-14T05:46:56;8.07;;;4.78;;
68398;SDS011;56258;52.196;13.868;2022-08-14T05:49:24;11.27;;;4.07;;
68398;SDS011;56258;52.196;13.868;2022-08-14T05:52:02;9.75;;;4.53;;
68398;SDS011;56258;52.196;13.868;2022-08-14T05:54:35;8.83;;;4.57;;
68398;SDS011;56258;52.196;13.868;2022-08-14T05:57:02;9.80;;;4.60;;
68398;SDS011;56258;52.196;13.868;2022-08-14T05:59:30;7.45;;;4.43;;
68398;SDS011;56258;52.196;13.868;2022-08-14T06:02:05;8.75;;;4.60;;
68398;SDS011;56258;52.196;13.868;2022-08-14T06:04:36;8.88;;;4.70;;
68398;SDS011;56258;52.196;13.868;2022-08-14T06:07:03;8.37;;;4.67;;
68398;SDS011;56258;52.196;13.868;2022-08-14T06:09:31;8.10;;;4.40;;
68398;SDS011;56258;52.196;13.868;2022-08-14T06:12:09;8.65;;;4.50;;
68398;SDS011;56258;52.196;13.868;2022-08-14T06:14:37;8.07;;;4.47;;
68398;SDS011;56258;52.196;13.868;2022-08-14T06:17:05;8.07;;;4.57;;
68398;SDS011;56258;52.196;13.868;2022-08-14T06:19:32;7.87;;;4.27;;
68398;SDS011;56258;52.196;13.868;2022-08-14T06:21:59;7.55;;;3.97;;
68398;SDS011;56258;52.196;13.868;2022-08-14T06:24:27;8.02;;;4.15;;
68398;SDS011;56258;52.196;13.868;2022-08-14T06:27:00;7.03;;;4.45;;
68398;SDS011;56258;52.196;13.868;2022-08-14T06:29:30;9.35;;;4.80;;
68398;SDS011;56258;52.196;13.868;2022-08-14T06:32:00;7.50;;;4.13;;
68398;SDS011;56258;52.196;13.868;2022-08-14T06:34:47;8.32;;;4.30;;
68398;SDS011;56258;52.196;13.868;2022-08-14T06:37:38;7.25;;;4.10;;
68398;SDS011;56258;52.196;13.868;2022-08-14T06:40:06;7.80;;;4.13;;
68398;SDS011;56258;52.196;13.868;2022-08-14T06:42:54;8.07;;;4.35;;
68398;SDS011;56258;52.196;13.868;2022-08-14T06:45:26;7.50;;;4.20;;
68398;SDS011;56258;52.196;13.868;2022-08-14T06:47:53;8.05;;;4.18;;
68398;SDS011;56258;52.196;13.868;2022-08-14T06:50:25;8.10;;;4.70;;
68398;SDS011;56258;52.196;13.868;2022-08-14T06:52:55;7.65;;;4.63;;
68398;SDS011;56258;52.196;13.868;2022-08-14T06:55:22;8.52;;;4.13;;
68398;SDS011;56258;52.196;13.868;2022-08-14T06:57:53;7.53;;;4.43;;
68398;SDS011;56258;52.196;13.868;2022-08-14T07:00:21;6.90;;;4.38;;
68398;SDS011;56258;52.196;13.868;2022-08-14T07:02:56;7.63;;;4.22;;
68398;SDS011;56258;52.196;13.868;2022-08-14T07:05:42;7.32;;;4.07;;
68398;SDS011;56258;52.196;13.868;2022-08-14T07:08:23;7.85;;;4.13;;
68398;SDS011;56258;52.196;13.868;2022-08-14T07:10:57;7.27;;;4.20;;
68398;SDS011;56258;52.196;13.868;2022-08-14T07:13:26;7.90;;;3.92;;
68398;SDS011;56258;52.196;13.868;2022-08-14T07:15:56;7.05;;;3.85;;
68398;SDS011;56258;52.196;13.868;2022-08-14T07:18:25;7.22;;;3.53;;
68398;SDS011;56258;52.196;13.868;2022-08-14T07:20:54;7.18;;;4.05;;
68398;SDS011;56258;52.196;13.868;2022-08-14T07:23:21;7.20;;;4.03;;
68398;SDS011;56258;52.196;13.868;2022-08-14T07:25:52;7.28;;;3.72;;
68398;SDS011;56258;52.196;13.868;2022-08-14T07:28:24;6.85;;;3.80;;
68398;SDS011;56258;52.196;13.868;2022-08-14T07:31:02;8.13;;;4.20;;
68398;SDS011;56258;52.196;13.868;2022-08-14T07:33:32;7.53;;;4.05;;
68398;SDS011;56258;52.196;13.868;2022-08-14T07:36:08;7.67;;;4.00;;
68398;SDS011;56258;52.196;13.868;2022-08-14T07:38:57;7.30;;;3.92;;
68398;SDS011;56258;52.196;13.868;2022-08-14T07:41:24;7.15;;;3.75;;
68398;SDS011;56258;52.196;13.868;2022-08-14T07:43:59;6.20;;;3.53;;
68398;SDS011;56258;52.196;13.868;2022-08-14T07:46:46;6.53;;;3.45;;
68398;SDS011;56258;52.196;13.868;2022-08-14T07:49:14;7.97;;;4.20;;
68398;SDS011;56258;52.196;13.868;2022-08-14T07:51:43;6.78;;;3.92;;
68398;SDS011;56258;52.196;13.868;2022-08-14T07:54:16;7.40;;;4.00;;
68398;SDS011;56258;52.196;13.868;2022-08-14T07:56:55;6.70;;;3.83;;
68398;SDS011;56258;52.196;13.868;2022-08-14T07:59:31;6.40;;;3.75;;
68398;SDS011;56258;52.196;13.868;2022-08-14T08:02:10;6.93;;;3.90;;
68398;SDS011;56258;52.196;13.868;2022-08-14T08:04:47;6.32;;;3.47;;
68398;SDS011;56258;52.196;13.868;2022-08-14T08:07:20;6.70;;;4.00;;
68398;SDS011;56258;52.196;13.868;2022-08-14T08:09:48;6.20;;;3.40;;
68398;SDS011;56258;52.196;13.868;2022-08-14T08:12:20;7.18;;;3.75;;
68398;SDS011;56258;52.196;13.868;2022-08-14T08:14:55;6.50;;;3.80;;
68398;SDS011;56258;52.196;13.868;2022-08-14T08:17:32;6.60;;;3.85;;
68398;SDS011;56258;52.196;13.868;2022-08-14T08:20:09;6.18;;;3.35;;
68398;SDS011;56258;52.196;13.868;2022-08-14T08:22:42;6.80;;;3.80;;
68398;SDS011;56258;52.196;13.868;2022-08-14T08:25:14;6.90;;;4.25;;
68398;SDS011;56258;52.196;13.868;2022-08-14T08:27:53;8.50;;;4.20;;
68398;SDS011;56258;52.196;13.868;2022-08-14T08:30:21;6.55;;;3.83;;
68398;SDS011;56258;52.196;13.868;2022-08-14T08:32:49;7.53;;;4.20;;
68398;SDS011;56258;52.196;13.868;2022-08-14T08:35:19;7.07;;;4.20;;
68398;SDS011;56258;52.196;13.868;2022-08-14T08:37:49;6.65;;;3.83;;
68398;SDS011;56258;52.196;13.868;2022-08-14T08:40:27;6.97;;;3.73;;
68398;SDS011;56258;52.196;13.868;2022-08-14T08:42:57;6.85;;;4.18;;
68398;SDS011;56258;52.196;13.868;2022-08-14T08:45:24;6.32;;;3.63;;
68398;SDS011;56258;52.196;13.868;2022-08-14T08:47:53;6.70;;;3.97;;
68398;SDS011;56258;52.196;13.868;2022-08-14T08:50:25;6.43;;;3.78;;
68398;SDS011;56258;52.196;13.868;2022-08-14T08:53:00;6.30;;;3.77;;
68398;SDS011;56258;52.196;13.868;2022-08-14T08:55:42;7.05;;;3.40;;
68398;SDS011;56258;52.196;13.868;2022-08-14T08:58:12;6.65;;;3.67;;
68398;SDS011;56258;52.196;13.868;2022-08-14T09:00:47;6.15;;;3.53;;
68398;SDS011;56258;52.196;13.868;2022-08-14T09:03:20;6.70;;;3.30;;
68398;SDS011;56258;52.196;13.868;2022-08-14T09:05:54;7.17;;;3.93;;
68398;SDS011;56258;52.196;13.868;2022-08-14T09:08:51;6.47;;;3.65;;
68398;SDS011;56258;52.196;13.868;2022-08-14T09:11:17;7.05;;;4.15;;
68398;SDS011;56258;52.196;13.868;2022-08-14T09:13:50;7.63;;;3.83;;
68398;SDS011;56258;52.196;13.868;2022-08-14T09:16:21;6.22;;;3.47;;
68398;SDS011;56258;52.196;13.868;2022-08-14T09:18:51;6.80;;;3.37;;
68398;SDS011;56258;52.196;13.868;2022-08-14T09:21:20;7.13;;;3.70;;
68398;SDS011;56258;52.196;13.868;2022-08-14T09:23:51;6.13;;;3.35;;
68398;SDS011;56258;52.196;13.868;2022-08-14T09:26:40;5.95;;;3.40;;
68398;SDS011;56258;52.196;13.868;2022-08-14T09:29:10;7.40;;;3.63;;
68398;SDS011;56258;52.196;13.868;2022-08-14T09:31:48;6.40;;;3.23;;
68398;SDS011;56258;52.196;13.868;2022-08-14T09:46:08;6.73;;;3.77;;
68398;SDS011;56258;52.196;13.868;2022-08-14T09:48:42;6.00;;;3.30;;
68398;SDS011;56258;52.196;13.868;2022-08-14T09:51:17;6.47;;;3.58;;
68398;SDS011;56258;52.196;13.868;2022-08-14T09:56:49;6.07;;;3.30;;
68398;SDS011;56258;52.196;13.868;2022-08-14T09:59:24;5.90;;;3.37;;
68398;SDS011;56258;52.196;13.868;2022-08-14T10:01:57;6.97;;;3.42;;
68398;SDS011;56258;52.196;13.868;2022-08-14T10:04:25;6.18;;;3.28;;
68398;SDS011;56258;52.196;13.868;2022-08-14T10:07:01;6.40;;;3.35;;
68398;SDS011;56258;52.196;13.868;2022-08-14T10:09:28;6.68;;;3.75;;
68398;SDS011;56258;52.196;13.868;2022-08-14T10:12:00;6.53;;;3.37;;
68398;SDS011;56258;52.196;13.868;2022-08-14T10:14:32;5.88;;;3.05;;
68398;SDS011;56258;52.196;13.868;2022-08-14T10:17:02;9.10;;;3.50;;
68398;SDS011;56258;52.196;13.868;2022-08-14T10:19:32;7.82;;;3.70;;
68398;SDS011;56258;52.196;13.868;2022-08-14T10:22:05;6.43;;;3.70;;
68398;SDS011;56258;52.196;13.868;2022-08-14T10:24:55;7.37;;;3.50;;
68398;SDS011;56258;52.196;13.868;2022-08-14T10:27:25;7.32;;;3.38;;
68398;SDS011;56258;52.196;13.868;2022-08-14T10:29:55;7.88;;;3.70;;
68398;SDS011;56258;52.196;13.868;2022-08-14T10:32:26;6.68;;;3.53;;
68398;SDS011;56258;52.196;13.868;2022-08-14T10:35:14;6.95;;;3.83;;
68398;SDS011;56258;52.196;13.868;2022-08-14T10:37:44;7.80;;;3.47;;
68398;SDS011;56258;52.196;13.868;2022-08-14T10:40:23;6.97;;;3.20;;
68398;SDS011;56258;52.196;13.868;2022-08-14T10:43:22;5.80;;;2.85;;
68398;SDS011;56258;52.196;13.868;2022-08-14T10:45:57;6.82;;;3.70;;
68398;SDS011;56258;52.196;13.868;2022-08-14T10:48:57;6.43;;;3.28;;
68398;SDS011;56258;52.196;13.868;2022-08-14T10:51:29;7.20;;;3.40;;
68398;SDS011;56258;52.196;13.868;2022-08-14T10:54:07;6.03;;;3.22;;
68398;SDS011;56258;52.196;13.868;2022-08-14T10:59:45;6.00;;;3.38;;
68398;SDS011;56258;52.196;13.868;2022-08-14T11:02:28;6.47;;;3.67;;
68398;SDS011;56258;52.196;13.868;2022-08-14T11:05:17;6.20;;;3.63;;
68398;SDS011;56258;52.196;13.868;2022-08-14T11:10:26;6.25;;;3.30;;
68398;SDS011;56258;52.196;13.868;2022-08-14T11:13:08;5.65;;;3.63;;
68398;SDS011;56258;52.196;13.868;2022-08-14T11:15:40;6.65;;;3.33;;
68398;SDS011;56258;52.196;13.868;2022-08-14T11:18:08;5.83;;;3.30;;
68398;SDS011;56258;52.196;13.868;2022-08-14T11:20:56;5.60;;;2.88;;
68398;SDS011;56258;52.196;13.868;2022-08-14T11:23:31;5.93;;;3.30;;
68398;SDS011;56258;52.196;13.868;2022-08-14T11:26:04;6.22;;;3.42;;
68398;SDS011;56258;52.196;13.868;2022-08-14T11:28:33;5.85;;;3.40;;
68398;SDS011;56258;52.196;13.868;2022-08-14T11:31:15;5.97;;;3.63;;
68398;SDS011;56258;52.196;13.868;2022-08-14T11:33:47;6.05;;;3.50;;
68398;SDS011;56258;52.196;13.868;2022-08-14T11:36:21;6.90;;;3.92;;
68398;SDS011;56258;52.196;13.868;2022-08-14T11:39:19;5.70;;;3.70;;
68398;SDS011;56258;52.196;13.868;2022-08-14T11:42:00;5.90;;;4.00;;
68398;SDS011;56258;52.196;13.868;2022-08-14T11:44:49;6.13;;;3.40;;
68398;SDS011;56258;52.196;13.868;2022-08-14T11:47:21;5.60;;;3.47;;
68398;SDS011;56258;52.196;13.868;2022-08-14T11:49:48;5.90;;;3.70;;
68398;SDS011;56258;52.196;13.868;2022-08-14T11:52:17;5.90;;;4.30;;
68398;SDS011;56258;52.196;13.868;2022-08-14T11:54:55;5.85;;;4.13;;
68398;SDS011;56258;52.196;13.868;2022-08-14T11:57:23;5.80;;;4.20;;
68398;SDS011;56258;52.196;13.868;2022-08-14T11:59:59;5.88;;;4.10;;
68398;SDS011;56258;52.196;13.868;2022-08-14T12:02:28;5.90;;;4.30;;
68398;SDS011;56258;52.196;13.868;2022-08-14T12:05:14;5.90;;;4.22;;
68398;SDS011;56258;52.196;13.868;2022-08-14T12:07:49;5.70;;;4.00;;
68398;SDS011;56258;52.196;13.868;2022-08-14T12:10:17;5.50;;;3.97;;
68398;SDS011;56258;52.196;13.868;2022-08-14T12:12:52;5.60;;;3.65;;
68398;SDS011;56258;52.196;13.868;2022-08-14T12:15:29;5.70;;;3.80;;
68398;SDS011;56258;52.196;13.868;2022-08-14T12:18:01;5.10;;;3.15;;
68398;SDS011;56258;52.196;13.868;2022-08-14T12:20:31;5.57;;;3.70;;
68398;SDS011;56258;52.196;13.868;2022-08-14T12:23:21;5.50;;;3.20;;
68398;SDS011;56258;52.196;13.868;2022-08-14T12:26:01;5.20;;;3.00;;
68398;SDS011;56258;52.196;13.868;2022-08-14T12:29:03;6.25;;;3.20;;
68398;SDS011;56258;52.196;13.868;2022-08-14T12:31:35;5.70;;;3.17;;
68398;SDS011;56258;52.196;13.868;2022-08-14T12:34:12;6.32;;;3.47;;
68398;SDS011;56258;52.196;13.868;2022-08-14T12:36:48;5.50;;;3.17;;
68398;SDS011;56258;52.196;13.868;2022-08-14T12:39:18;5.68;;;2.88;;
68398;SDS011;56258;52.196;13.868;2022-08-14T12:41:49;5.00;;;2.80;;
68398;SDS011;56258;52.196;13.868;2022-08-14T12:44:35;5.63;;;3.15;;
68398;SDS011;56258;52.196;13.868;2022-08-14T12:49:49;5.80;;;3.37;;
68398;SDS011;56258;52.196;13.868;2022-08-14T12:52:27;5.35;;;3.00;;
68398;SDS011;56258;52.196;13.868;2022-08-14T12:55:28;5.10;;;3.10;;
68398;SDS011;56258;52.196;13.868;2022-08-14T12:58:20;6.13;;;3.42;;
68398;SDS011;56258;52.196;13.868;2022-08-14T13:01:01;5.07;;;2.65;;
68398;SDS011;56258;52.196;13.868;2022-08-14T13:03:45;6.30;;;2.93;;
68398;SDS011;56258;52.196;13.868;2022-08-14T13:06:17;5.00;;;2.80;;
68398;SDS011;56258;52.196;13.868;2022-08-14T13:08:45;5.45;;;2.40;;
68398;SDS011;56258;52.196;13.868;2022-08-14T13:11:18;5.10;;;2.22;;
68398;SDS011;56258;52.196;13.868;2022-08-14T13:13:49;6.97;;;2.85;;
68398;SDS011;56258;52.196;13.868;2022-08-14T13:16:22;5.60;;;2.93;;
68398;SDS011;56258;52.196;13.868;2022-08-14T13:19:03;6.43;;;2.63;;
68398;SDS011;56258;52.196;13.868;2022-08-14T13:21:37;6.07;;;3.10;;
68398;SDS011;56258;52.196;13.868;2022-08-14T13:24:24;6.63;;;2.58;;
68398;SDS011;56258;52.196;13.868;2022-08-14T13:26:53;5.88;;;2.60;;
68398;SDS011;56258;52.196;13.868;2022-08-14T13:29:24;6.00;;;2.53;;
68398;SDS011;56258;52.196;13.868;2022-08-14T13:31:56;6.80;;;2.70;;
68398;SDS011;56258;52.196;13.868;2022-08-14T13:34:25;5.70;;;2.60;;
68398;SDS011;56258;52.196;13.868;2022-08-14T13:36:54;5.28;;;2.53;;
68398;SDS011;56258;52.196;13.868;2022-08-14T13:39:29;8.00;;;2.70;;
68398;SDS011;56258;52.196;13.868;2022-08-14T13:42:02;6.97;;;2.97;;
68398;SDS011;56258;52.196;13.868;2022-08-14T13:44:39;7.10;;;2.42;;
68398;SDS011;56258;52.196;13.868;2022-08-14T13:47:08;8.68;;;3.13;;
68398;SDS011;56258;52.196;13.868;2022-08-14T13:49:41;6.38;;;2.95;;
68398;SDS011;56258;52.196;13.868;2022-08-14T13:52:24;5.53;;;2.67;;
68398;SDS011;56258;52.196;13.868;2022-08-14T13:55:11;6.20;;;2.90;;
68398;SDS011;56258;52.196;13.868;2022-08-14T13:57:41;5.00;;;2.22;;
68398;SDS011;56258;52.196;13.868;2022-08-14T14:00:15;5.35;;;2.47;;
68398;SDS011;56258;52.196;13.868;2022-08-14T14:02:58;6.90;;;2.72;;
68398;SDS011;56258;52.196;13.868;2022-08-14T14:05:25;5.75;;;2.78;;
68398;SDS011;56258;52.196;13.868;2022-08-14T14:08:13;5.10;;;2.50;;
68398;SDS011;56258;52.196;13.868;2022-08-14T14:11:01;5.72;;;2.50;;
68398;SDS011;56258;52.196;13.868;2022-08-14T14:13:29;5.78;;;2.58;;
68398;SDS011;56258;52.196;13.868;2022-08-14T14:15:57;5.80;;;2.55;;
68398;SDS011;56258;52.196;13.868;2022-08-14T14:18:29;4.80;;;2.40;;
68398;SDS011;56258;52.196;13.868;2022-08-14T14:21:00;5.20;;;2.30;;
68398;SDS011;56258;52.196;13.868;2022-08-14T14:23:28;6.45;;;2.47;;
68398;SDS011;56258;52.196;13.868;2022-08-14T14:25:57;5.43;;;2.67;;
68398;SDS011;56258;52.196;13.868;2022-08-14T14:28:29;5.40;;;2.30;;
68398;SDS011;56258;52.196;13.868;2022-08-14T14:30:57;6.07;;;2.45;;
68398;SDS011;56258;52.196;13.868;2022-08-14T14:33:33;6.90;;;2.67;;
68398;SDS011;56258;52.196;13.868;2022-08-14T14:36:20;5.18;;;2.50;;
68398;SDS011;56258;52.196;13.868;2022-08-14T14:39:00;5.93;;;2.60;;
68398;SDS011;56258;52.196;13.868;2022-08-14T14:41:30;5.75;;;2.40;;
68398;SDS011;56258;52.196;13.868;2022-08-14T14:44:04;5.50;;;2.70;;
68398;SDS011;56258;52.196;13.868;2022-08-14T14:46:35;5.60;;;2.40;;
68398;SDS011;56258;52.196;13.868;2022-08-14T14:49:07;4.85;;;2.53;;
68398;SDS011;56258;52.196;13.868;2022-08-14T14:51:40;4.90;;;2.50;;
68398;SDS011;56258;52.196;13.868;2022-08-14T14:54:16;6.07;;;2.80;;
68398;SDS011;56258;52.196;13.868;2022-08-14T14:56:55;4.65;;;2.13;;
68398;SDS011;56258;52.196;13.868;2022-08-14T14:59:24;5.10;;;2.10;;
68398;SDS011;56258;52.196;13.868;2022-08-14T15:01:57;5.50;;;2.28;;
68398;SDS011;56258;52.196;13.868;2022-08-14T15:04:25;4.75;;;2.28;;
68398;SDS011;56258;52.196;13.868;2022-08-14T15:06:52;4.85;;;2.10;;
68398;SDS011;56258;52.196;13.868;2022-08-14T15:09:19;4.75;;;2.38;;
68398;SDS011;56258;52.196;13.868;2022-08-14T15:11:48;5.13;;;2.67;;
68398;SDS011;56258;52.196;13.868;2022-08-14T15:14:15;6.38;;;2.38;;
68398;SDS011;56258;52.196;13.868;2022-08-14T15:17:02;5.25;;;1.90;;
68398;SDS011;56258;52.196;13.868;2022-08-14T15:19:31;5.20;;;2.20;;
68398;SDS011;56258;52.196;13.868;2022-08-14T15:21:58;5.15;;;2.50;;
68398;SDS011;56258;52.196;13.868;2022-08-14T15:24:25;5.27;;;2.00;;
68398;SDS011;56258;52.196;13.868;2022-08-14T15:26:52;5.28;;;2.10;;
68398;SDS011;56258;52.196;13.868;2022-08-14T15:29:24;5.18;;;2.55;;
68398;SDS011;56258;52.196;13.868;2022-08-14T15:31:51;5.28;;;2.15;;
68398;SDS011;56258;52.196;13.868;2022-08-14T15:34:19;5.38;;;2.35;;
68398;SDS011;56258;52.196;13.868;2022-08-14T15:37:07;5.60;;;2.17;;
68398;SDS011;56258;52.196;13.868;2022-08-14T15:39:36;6.05;;;2.30;;
68398;SDS011;56258;52.196;13.868;2022-08-14T15:42:04;4.72;;;1.98;;